sensor_id;sensor_type;location;lat;lon;timestamp;P1;durP1;ratioP1;P2;durP2;ratioP2
52438;SDS011;38359;53.150;6.504;2022-11-20T00:01:20;31.65;;;17.83;;
52438;SDS011;38359;53.150;6.504;2022-11-20T00:11:49;49.45;;;23.73;;
52438;SDS011;38359;53.150;6.504;2022-11-20T00:22:15;33.80;;;18.10;;
52438;SDS011;38359;53.150;6.504;2022-11-20T00:32:41;39.15;;;18.85;;
52438;SDS011;38359;53.150;6.504;2022-11-20T00:43:06;38.25;;;18.63;;
52438;SDS011;38359;53.150;6.504;2022-11-20T00:53:32;36.33;;;17.50;;
52438;SDS011;38359;53.150;6.504;2022-11-20T01:03:59;36.22;;;18.50;;
52438;SDS011;38359;53.150;6.504;2022-11-20T01:14:25;36.45;;;18.67;;
52438;SDS011;38359;53.150;6.504;2022-11-20T01:24:51;34.58;;;18.20;;
52438;SDS011;38359;53.150;6.504;2022-11-20T01:35:17;36.60;;;19.02;;
52438;SDS011;38359;53.150;6.504;2022-11-20T01:56:43;35.28;;;16.98;;
52438;SDS011;38359;53.150;6.504;2022-11-20T02:07:11;29.42;;;16.50;;
52438;SDS011;38359;53.150;6.504;2022-11-20T02:17:37;27.55;;;15.32;;
52438;SDS011;38359;53.150;6.504;2022-11-20T02:28:03;25.48;;;14.68;;
52438;SDS011;38359;53.150;6.504;2022-11-20T02:38:31;25.70;;;14.68;;
52438;SDS011;38359;53.150;6.504;2022-11-20T02:48:56;26.58;;;15.07;;
52438;SDS011;38359;53.150;6.504;2022-11-20T02:59:22;26.55;;;14.98;;
52438;SDS011;38359;53.150;6.504;2022-11-20T03:09:48;54.45;;;16.50;;
52438;SDS011;38359;53.150;6.504;2022-11-20T03:20:14;29.98;;;14.93;;
52438;SDS011;38359;53.150;6.504;2022-11-20T03:30:40;26.40;;;14.48;;
52438;SDS011;38359;53.150;6.504;2022-11-20T03:41:09;24.38;;;13.65;;
52438;SDS011;38359;53.150;6.504;2022-11-20T03:51:37;25.50;;;13.13;;
52438;SDS011;38359;53.150;6.504;2022-11-20T04:02:03;21.20;;;12.30;;
52438;SDS011;38359;53.150;6.504;2022-11-20T04:12:31;25.35;;;11.60;;
52438;SDS011;38359;53.150;6.504;2022-11-20T04:22:58;19.98;;;12.15;;
52438;SDS011;38359;53.150;6.504;2022-11-20T04:33:24;21.77;;;12.65;;
52438;SDS011;38359;53.150;6.504;2022-11-20T04:43:51;24.30;;;12.75;;
52438;SDS011;38359;53.150;6.504;2022-11-20T04:54:23;22.93;;;12.50;;
52438;SDS011;38359;53.150;6.504;2022-11-20T05:04:49;35.80;;;16.00;;
52438;SDS011;38359;53.150;6.504;2022-11-20T05:15:15;22.73;;;13.13;;
52438;SDS011;38359;53.150;6.504;2022-11-20T05:25:41;23.45;;;12.73;;
52438;SDS011;38359;53.150;6.504;2022-11-20T05:36:07;21.63;;;11.63;;
52438;SDS011;38359;53.150;6.504;2022-11-20T05:46:34;23.15;;;12.40;;
52438;SDS011;38359;53.150;6.504;2022-11-20T05:57:00;19.00;;;11.32;;
52438;SDS011;38359;53.150;6.504;2022-11-20T06:07:25;18.40;;;10.77;;
52438;SDS011;38359;53.150;6.504;2022-11-20T06:17:52;19.38;;;10.95;;
52438;SDS011;38359;53.150;6.504;2022-11-20T06:28:18;17.88;;;10.40;;
52438;SDS011;38359;53.150;6.504;2022-11-20T06:38:44;18.98;;;10.75;;
52438;SDS011;38359;53.150;6.504;2022-11-20T06:49:10;21.63;;;11.35;;
52438;SDS011;38359;53.150;6.504;2022-11-20T06:59:36;19.77;;;10.85;;
52438;SDS011;38359;53.150;6.504;2022-11-20T07:10:02;20.92;;;11.35;;
52438;SDS011;38359;53.150;6.504;2022-11-20T07:20:29;19.25;;;11.23;;
52438;SDS011;38359;53.150;6.504;2022-11-20T07:30:55;20.02;;;11.50;;
52438;SDS011;38359;53.150;6.504;2022-11-20T07:41:21;20.25;;;10.98;;
52438;SDS011;38359;53.150;6.504;2022-11-20T07:51:46;19.85;;;11.77;;
52438;SDS011;38359;53.150;6.504;2022-11-20T08:02:15;20.40;;;11.60;;
52438;SDS011;38359;53.150;6.504;2022-11-20T08:12:45;19.25;;;11.43;;
52438;SDS011;38359;53.150;6.504;2022-11-20T08:23:34;22.40;;;11.43;;
52438;SDS011;38359;53.150;6.504;2022-11-20T08:34:00;18.63;;;10.20;;
52438;SDS011;38359;53.150;6.504;2022-11-20T08:44:25;18.13;;;10.45;;
52438;SDS011;38359;53.150;6.504;2022-11-20T08:54:51;17.75;;;10.45;;
52438;SDS011;38359;53.150;6.504;2022-11-20T09:05:17;20.95;;;11.27;;
52438;SDS011;38359;53.150;6.504;2022-11-20T09:15:42;21.02;;;10.75;;
52438;SDS011;38359;53.150;6.504;2022-11-20T09:26:09;16.98;;;10.15;;
52438;SDS011;38359;53.150;6.504;2022-11-20T09:36:39;14.55;;;9.60;;
52438;SDS011;38359;53.150;6.504;2022-11-20T09:47:08;19.20;;;10.48;;
52438;SDS011;38359;53.150;6.504;2022-11-20T09:57:46;17.00;;;9.65;;
52438;SDS011;38359;53.150;6.504;2022-11-20T10:08:17;15.88;;;9.32;;
52438;SDS011;38359;53.150;6.504;2022-11-20T10:30:59;16.30;;;9.70;;
52438;SDS011;38359;53.150;6.504;2022-11-20T10:41:32;16.15;;;8.82;;
52438;SDS011;38359;53.150;6.504;2022-11-20T10:52:16;16.33;;;8.93;;
52438;SDS011;38359;53.150;6.504;2022-11-20T11:03:26;15.98;;;8.63;;
52438;SDS011;38359;53.150;6.504;2022-11-20T11:24:53;17.27;;;9.32;;
52438;SDS011;38359;53.150;6.504;2022-11-20T11:45:54;15.23;;;8.03;;
52438;SDS011;38359;53.150;6.504;2022-11-20T11:56:21;14.45;;;8.02;;
52438;SDS011;38359;53.150;6.504;2022-11-20T12:06:50;11.27;;;6.15;;
52438;SDS011;38359;53.150;6.504;2022-11-20T12:17:26;7.63;;;4.78;;
52438;SDS011;38359;53.150;6.504;2022-11-20T12:39:07;9.15;;;5.55;;
52438;SDS011;38359;53.150;6.504;2022-11-20T12:50:02;8.52;;;5.22;;
52438;SDS011;38359;53.150;6.504;2022-11-20T13:00:54;10.57;;;5.75;;
52438;SDS011;38359;53.150;6.504;2022-11-20T13:22:54;11.63;;;6.50;;
52438;SDS011;38359;53.150;6.504;2022-11-20T13:33:23;11.88;;;6.03;;
52438;SDS011;38359;53.150;6.504;2022-11-20T13:44:04;10.75;;;6.68;;
52438;SDS011;38359;53.150;6.504;2022-11-20T13:54:49;12.32;;;7.00;;
52438;SDS011;38359;53.150;6.504;2022-11-20T14:16:05;12.35;;;7.13;;
52438;SDS011;38359;53.150;6.504;2022-11-20T14:26:31;15.77;;;9.13;;
52438;SDS011;38359;53.150;6.504;2022-11-20T14:36:59;12.38;;;7.60;;
52438;SDS011;38359;53.150;6.504;2022-11-20T14:47:28;13.00;;;8.68;;
52438;SDS011;38359;53.150;6.504;2022-11-20T14:57:56;10.82;;;7.40;;
52438;SDS011;38359;53.150;6.504;2022-11-20T15:08:28;12.45;;;7.65;;
52438;SDS011;38359;53.150;6.504;2022-11-20T15:18:54;15.07;;;7.63;;
52438;SDS011;38359;53.150;6.504;2022-11-20T15:29:20;15.38;;;8.05;;
52438;SDS011;38359;53.150;6.504;2022-11-20T15:39:48;16.05;;;8.93;;
52438;SDS011;38359;53.150;6.504;2022-11-20T15:50:14;16.58;;;9.82;;
52438;SDS011;38359;53.150;6.504;2022-11-20T16:00:43;19.20;;;10.38;;
52438;SDS011;38359;53.150;6.504;2022-11-20T16:11:13;16.75;;;9.93;;
52438;SDS011;38359;53.150;6.504;2022-11-20T16:21:41;15.45;;;9.77;;
52438;SDS011;38359;53.150;6.504;2022-11-20T16:32:07;16.23;;;10.48;;
52438;SDS011;38359;53.150;6.504;2022-11-20T16:42:35;24.08;;;11.55;;
52438;SDS011;38359;53.150;6.504;2022-11-20T16:53:02;19.25;;;11.27;;
52438;SDS011;38359;53.150;6.504;2022-11-20T17:03:27;20.25;;;10.80;;
52438;SDS011;38359;53.150;6.504;2022-11-20T17:13:54;27.85;;;16.50;;
52438;SDS011;38359;53.150;6.504;2022-11-20T17:24:20;18.02;;;11.35;;
52438;SDS011;38359;53.150;6.504;2022-11-20T17:34:46;19.30;;;11.60;;
52438;SDS011;38359;53.150;6.504;2022-11-20T17:45:12;21.38;;;11.27;;
52438;SDS011;38359;53.150;6.504;2022-11-20T17:55:38;20.50;;;12.05;;
52438;SDS011;38359;53.150;6.504;2022-11-20T18:06:23;21.80;;;11.77;;
52438;SDS011;38359;53.150;6.504;2022-11-20T18:16:54;28.38;;;15.50;;
52438;SDS011;38359;53.150;6.504;2022-11-20T18:27:22;24.75;;;13.45;;
52438;SDS011;38359;53.150;6.504;2022-11-20T18:37:48;21.10;;;12.48;;
52438;SDS011;38359;53.150;6.504;2022-11-20T18:48:14;23.10;;;12.73;;
52438;SDS011;38359;53.150;6.504;2022-11-20T18:58:40;24.00;;;13.35;;
52438;SDS011;38359;53.150;6.504;2022-11-20T19:09:07;25.85;;;14.50;;
52438;SDS011;38359;53.150;6.504;2022-11-20T19:19:35;34.75;;;16.88;;
52438;SDS011;38359;53.150;6.504;2022-11-20T19:30:01;34.42;;;19.67;;
52438;SDS011;38359;53.150;6.504;2022-11-20T19:40:27;29.33;;;15.13;;
52438;SDS011;38359;53.150;6.504;2022-11-20T19:50:53;30.38;;;16.58;;
52438;SDS011;38359;53.150;6.504;2022-11-20T20:01:20;31.05;;;16.23;;
52438;SDS011;38359;53.150;6.504;2022-11-20T20:11:48;31.60;;;16.00;;
52438;SDS011;38359;53.150;6.504;2022-11-20T20:22:14;32.67;;;16.10;;
52438;SDS011;38359;53.150;6.504;2022-11-20T20:32:40;30.10;;;16.45;;
52438;SDS011;38359;53.150;6.504;2022-11-20T20:43:06;34.38;;;17.70;;
52438;SDS011;38359;53.150;6.504;2022-11-20T20:53:31;32.03;;;17.48;;
52438;SDS011;38359;53.150;6.504;2022-11-20T21:03:57;31.80;;;17.17;;
52438;SDS011;38359;53.150;6.504;2022-11-20T21:14:23;39.65;;;18.27;;
52438;SDS011;38359;53.150;6.504;2022-11-20T21:24:49;34.90;;;17.77;;
52438;SDS011;38359;53.150;6.504;2022-11-20T21:35:15;33.40;;;17.65;;
52438;SDS011;38359;53.150;6.504;2022-11-20T21:45:41;33.83;;;17.40;;
52438;SDS011;38359;53.150;6.504;2022-11-20T21:56:08;33.92;;;18.88;;
52438;SDS011;38359;53.150;6.504;2022-11-20T22:06:35;32.85;;;18.55;;
52438;SDS011;38359;53.150;6.504;2022-11-20T22:17:01;34.22;;;17.42;;
52438;SDS011;38359;53.150;6.504;2022-11-20T22:27:26;37.65;;;19.98;;
52438;SDS011;38359;53.150;6.504;2022-11-20T22:37:52;36.38;;;19.85;;
52438;SDS011;38359;53.150;6.504;2022-11-20T22:48:18;39.65;;;21.10;;
52438;SDS011;38359;53.150;6.504;2022-11-20T22:58:46;37.53;;;20.08;;
52438;SDS011;38359;53.150;6.504;2022-11-20T23:09:13;40.85;;;21.67;;
52438;SDS011;38359;53.150;6.504;2022-11-20T23:19:39;43.58;;;21.60;;
52438;SDS011;38359;53.150;6.504;2022-11-20T23:30:05;40.33;;;20.52;;
52438;SDS011;38359;53.150;6.504;2022-11-20T23:40:33;46.78;;;21.30;;
52438;SDS011;38359;53.150;6.504;2022-11-20T23:51:00;48.90;;;22.20;;
